sensor_id;sensor_type;location;lat;lon;timestamp;P1;durP1;ratioP1;P2;durP2;ratioP2
45392;SDS011;31129;44.810;10.334;2023-03-01T00:01:06;42.17;;;25.17;;
45392;SDS011;31129;44.810;10.334;2023-03-01T00:03:34;38.95;;;24.27;;
45392;SDS011;31129;44.810;10.334;2023-03-01T00:06:00;33.92;;;23.33;;
45392;SDS011;31129;44.810;10.334;2023-03-01T00:08:26;38.75;;;23.88;;
45392;SDS011;31129;44.810;10.334;2023-03-01T00:13:31;32.92;;;21.85;;
45392;SDS011;31129;44.810;10.334;2023-03-01T00:15:57;37.22;;;21.50;;
45392;SDS011;31129;44.810;10.334;2023-03-01T00:18:23;32.38;;;20.77;;
45392;SDS011;31129;44.810;10.334;2023-03-01T00:20:49;30.20;;;20.13;;
45392;SDS011;31129;44.810;10.334;2023-03-01T00:23:16;28.80;;;18.47;;
45392;SDS011;31129;44.810;10.334;2023-03-01T00:25:42;30.20;;;17.70;;
45392;SDS011;31129;44.810;10.334;2023-03-01T00:28:07;30.42;;;18.85;;
45392;SDS011;31129;44.810;10.334;2023-03-01T00:30:33;26.95;;;16.35;;
45392;SDS011;31129;44.810;10.334;2023-03-01T00:32:58;22.23;;;15.00;;
45392;SDS011;31129;44.810;10.334;2023-03-01T00:35:24;25.63;;;15.38;;
45392;SDS011;31129;44.810;10.334;2023-03-01T00:37:49;24.10;;;15.45;;
45392;SDS011;31129;44.810;10.334;2023-03-01T00:40:29;24.33;;;15.55;;
45392;SDS011;31129;44.810;10.334;2023-03-01T00:42:56;24.50;;;15.35;;
45392;SDS011;31129;44.810;10.334;2023-03-01T00:45:22;23.20;;;14.48;;
45392;SDS011;31129;44.810;10.334;2023-03-01T00:47:51;28.30;;;15.48;;
45392;SDS011;31129;44.810;10.334;2023-03-01T00:50:17;30.98;;;15.88;;
45392;SDS011;31129;44.810;10.334;2023-03-01T00:52:43;23.65;;;14.98;;
45392;SDS011;31129;44.810;10.334;2023-03-01T00:55:08;23.55;;;14.70;;
45392;SDS011;31129;44.810;10.334;2023-03-01T00:57:34;24.73;;;15.80;;
45392;SDS011;31129;44.810;10.334;2023-03-01T01:00:00;27.02;;;16.73;;
45392;SDS011;31129;44.810;10.334;2023-03-01T01:02:25;30.02;;;15.77;;
45392;SDS011;31129;44.810;10.334;2023-03-01T01:04:51;29.10;;;15.57;;
45392;SDS011;31129;44.810;10.334;2023-03-01T01:07:17;24.48;;;15.50;;
45392;SDS011;31129;44.810;10.334;2023-03-01T01:09:48;22.73;;;15.80;;
45392;SDS011;31129;44.810;10.334;2023-03-01T01:12:13;27.42;;;14.80;;
45392;SDS011;31129;44.810;10.334;2023-03-01T01:14:39;24.85;;;15.32;;
45392;SDS011;31129;44.810;10.334;2023-03-01T01:17:04;23.77;;;15.48;;
45392;SDS011;31129;44.810;10.334;2023-03-01T01:19:30;24.98;;;15.90;;
45392;SDS011;31129;44.810;10.334;2023-03-01T01:21:56;25.48;;;16.00;;
45392;SDS011;31129;44.810;10.334;2023-03-01T01:24:21;24.67;;;15.48;;
45392;SDS011;31129;44.810;10.334;2023-03-01T01:26:49;30.80;;;15.52;;
45392;SDS011;31129;44.810;10.334;2023-03-01T01:29:15;26.65;;;16.80;;
45392;SDS011;31129;44.810;10.334;2023-03-01T01:31:41;27.45;;;16.80;;
45392;SDS011;31129;44.810;10.334;2023-03-01T01:34:09;27.13;;;17.25;;
45392;SDS011;31129;44.810;10.334;2023-03-01T01:36:39;29.23;;;16.88;;
45392;SDS011;31129;44.810;10.334;2023-03-01T01:39:04;24.80;;;16.10;;
45392;SDS011;31129;44.810;10.334;2023-03-01T01:41:30;24.38;;;16.00;;
45392;SDS011;31129;44.810;10.334;2023-03-01T01:46:54;24.77;;;15.25;;
45392;SDS011;31129;44.810;10.334;2023-03-01T01:51:51;23.88;;;15.57;;
45392;SDS011;31129;44.810;10.334;2023-03-01T01:55:03;27.48;;;16.05;;
45392;SDS011;31129;44.810;10.334;2023-03-01T01:57:43;24.40;;;16.33;;
45392;SDS011;31129;44.810;10.334;2023-03-01T02:00:12;28.10;;;16.33;;
45392;SDS011;31129;44.810;10.334;2023-03-01T02:02:43;28.70;;;15.95;;
45392;SDS011;31129;44.810;10.334;2023-03-01T02:07:52;25.83;;;16.20;;
45392;SDS011;31129;44.810;10.334;2023-03-01T02:10:19;23.27;;;15.77;;
45392;SDS011;31129;44.810;10.334;2023-03-01T02:12:46;26.15;;;14.82;;
45392;SDS011;31129;44.810;10.334;2023-03-01T02:15:11;30.02;;;15.90;;
45392;SDS011;31129;44.810;10.334;2023-03-01T02:17:36;24.33;;;15.82;;
45392;SDS011;31129;44.810;10.334;2023-03-01T02:22:52;22.65;;;14.20;;
45392;SDS011;31129;44.810;10.334;2023-03-01T02:30:38;24.02;;;14.65;;
45392;SDS011;31129;44.810;10.334;2023-03-01T02:33:25;21.83;;;14.13;;
45392;SDS011;31129;44.810;10.334;2023-03-01T02:35:53;26.83;;;15.75;;
45392;SDS011;31129;44.810;10.334;2023-03-01T02:38:20;23.50;;;15.07;;
45392;SDS011;31129;44.810;10.334;2023-03-01T02:40:47;29.13;;;16.27;;
45392;SDS011;31129;44.810;10.334;2023-03-01T02:43:15;26.35;;;16.10;;
45392;SDS011;31129;44.810;10.334;2023-03-01T02:45:49;25.55;;;14.85;;
45392;SDS011;31129;44.810;10.334;2023-03-01T02:48:16;22.75;;;15.25;;
45392;SDS011;31129;44.810;10.334;2023-03-01T02:51:03;22.45;;;15.43;;
45392;SDS011;31129;44.810;10.334;2023-03-01T02:53:39;28.80;;;15.40;;
45392;SDS011;31129;44.810;10.334;2023-03-01T02:56:17;24.42;;;15.20;;
45392;SDS011;31129;44.810;10.334;2023-03-01T02:58:43;25.45;;;16.05;;
45392;SDS011;31129;44.810;10.334;2023-03-01T03:01:19;27.30;;;16.48;;
45392;SDS011;31129;44.810;10.334;2023-03-01T03:06:12;26.05;;;15.57;;
45392;SDS011;31129;44.810;10.334;2023-03-01T03:08:37;25.15;;;16.35;;
45392;SDS011;31129;44.810;10.334;2023-03-01T03:11:03;30.50;;;16.30;;
45392;SDS011;31129;44.810;10.334;2023-03-01T03:13:28;28.63;;;17.05;;
45392;SDS011;31129;44.810;10.334;2023-03-01T03:15:55;25.08;;;15.75;;
45392;SDS011;31129;44.810;10.334;2023-03-01T03:18:21;25.90;;;15.27;;
45392;SDS011;31129;44.810;10.334;2023-03-01T03:20:47;27.55;;;15.50;;
45392;SDS011;31129;44.810;10.334;2023-03-01T03:23:18;26.23;;;15.52;;
45392;SDS011;31129;44.810;10.334;2023-03-01T03:25:44;25.52;;;16.77;;
45392;SDS011;31129;44.810;10.334;2023-03-01T03:28:10;26.92;;;15.93;;
45392;SDS011;31129;44.810;10.334;2023-03-01T03:30:36;30.23;;;16.50;;
45392;SDS011;31129;44.810;10.334;2023-03-01T03:33:04;28.88;;;16.10;;
45392;SDS011;31129;44.810;10.334;2023-03-01T03:35:32;25.58;;;15.45;;
45392;SDS011;31129;44.810;10.334;2023-03-01T03:38:00;27.25;;;16.63;;
45392;SDS011;31129;44.810;10.334;2023-03-01T03:40:39;26.00;;;14.90;;
45392;SDS011;31129;44.810;10.334;2023-03-01T03:43:07;23.65;;;15.25;;
45392;SDS011;31129;44.810;10.334;2023-03-01T03:45:34;27.40;;;15.77;;
45392;SDS011;31129;44.810;10.334;2023-03-01T03:48:00;25.27;;;15.02;;
45392;SDS011;31129;44.810;10.334;2023-03-01T03:50:27;26.15;;;15.82;;
45392;SDS011;31129;44.810;10.334;2023-03-01T03:52:53;25.02;;;16.00;;
45392;SDS011;31129;44.810;10.334;2023-03-01T03:55:18;23.52;;;14.75;;
45392;SDS011;31129;44.810;10.334;2023-03-01T03:57:45;25.85;;;16.20;;
45392;SDS011;31129;44.810;10.334;2023-03-01T04:00:17;22.70;;;14.68;;
45392;SDS011;31129;44.810;10.334;2023-03-01T04:02:45;27.05;;;16.50;;
45392;SDS011;31129;44.810;10.334;2023-03-01T04:05:12;22.08;;;14.88;;
45392;SDS011;31129;44.810;10.334;2023-03-01T04:07:39;23.33;;;15.00;;
45392;SDS011;31129;44.810;10.334;2023-03-01T04:10:07;24.15;;;15.18;;
45392;SDS011;31129;44.810;10.334;2023-03-01T04:12:38;22.75;;;14.68;;
45392;SDS011;31129;44.810;10.334;2023-03-01T04:15:04;26.58;;;14.98;;
45392;SDS011;31129;44.810;10.334;2023-03-01T04:17:41;25.70;;;15.05;;
45392;SDS011;31129;44.810;10.334;2023-03-01T04:20:09;25.65;;;15.48;;
45392;SDS011;31129;44.810;10.334;2023-03-01T04:22:36;25.02;;;15.32;;
45392;SDS011;31129;44.810;10.334;2023-03-01T04:25:02;26.90;;;14.82;;
45392;SDS011;31129;44.810;10.334;2023-03-01T04:27:29;24.25;;;14.98;;
45392;SDS011;31129;44.810;10.334;2023-03-01T04:29:55;24.92;;;14.98;;
45392;SDS011;31129;44.810;10.334;2023-03-01T04:32:20;28.27;;;15.65;;
45392;SDS011;31129;44.810;10.334;2023-03-01T04:34:46;22.92;;;14.82;;
45392;SDS011;31129;44.810;10.334;2023-03-01T04:37:11;23.02;;;13.80;;
45392;SDS011;31129;44.810;10.334;2023-03-01T04:39:36;24.35;;;14.48;;
45392;SDS011;31129;44.810;10.334;2023-03-01T04:42:10;28.48;;;14.90;;
45392;SDS011;31129;44.810;10.334;2023-03-01T04:44:36;24.42;;;14.63;;
45392;SDS011;31129;44.810;10.334;2023-03-01T04:47:01;25.23;;;15.43;;
45392;SDS011;31129;44.810;10.334;2023-03-01T04:49:27;22.38;;;14.52;;
45392;SDS011;31129;44.810;10.334;2023-03-01T04:51:52;25.67;;;14.48;;
45392;SDS011;31129;44.810;10.334;2023-03-01T04:54:17;23.80;;;15.65;;
45392;SDS011;31129;44.810;10.334;2023-03-01T04:56:43;24.90;;;15.80;;
45392;SDS011;31129;44.810;10.334;2023-03-01T04:59:08;27.98;;;16.25;;
45392;SDS011;31129;44.810;10.334;2023-03-01T05:01:35;31.48;;;17.48;;
45392;SDS011;31129;44.810;10.334;2023-03-01T05:04:00;27.67;;;17.02;;
45392;SDS011;31129;44.810;10.334;2023-03-01T05:06:28;28.63;;;17.70;;
45392;SDS011;31129;44.810;10.334;2023-03-01T05:08:53;25.92;;;17.45;;
45392;SDS011;31129;44.810;10.334;2023-03-01T05:11:19;29.48;;;18.58;;
45392;SDS011;31129;44.810;10.334;2023-03-01T05:13:44;27.95;;;17.35;;
45392;SDS011;31129;44.810;10.334;2023-03-01T05:16:10;29.15;;;19.00;;
45392;SDS011;31129;44.810;10.334;2023-03-01T05:18:36;30.20;;;17.52;;
45392;SDS011;31129;44.810;10.334;2023-03-01T05:21:03;30.08;;;18.77;;
45392;SDS011;31129;44.810;10.334;2023-03-01T05:23:29;34.45;;;19.38;;
45392;SDS011;31129;44.810;10.334;2023-03-01T05:26:02;31.15;;;17.20;;
45392;SDS011;31129;44.810;10.334;2023-03-01T05:28:29;29.60;;;18.27;;
45392;SDS011;31129;44.810;10.334;2023-03-01T05:30:55;30.73;;;17.95;;
45392;SDS011;31129;44.810;10.334;2023-03-01T05:33:21;31.80;;;19.30;;
45392;SDS011;31129;44.810;10.334;2023-03-01T05:35:48;30.80;;;18.20;;
45392;SDS011;31129;44.810;10.334;2023-03-01T05:38:15;30.27;;;18.27;;
45392;SDS011;31129;44.810;10.334;2023-03-01T05:40:42;28.55;;;18.00;;
45392;SDS011;31129;44.810;10.334;2023-03-01T05:43:13;29.60;;;19.05;;
45392;SDS011;31129;44.810;10.334;2023-03-01T05:45:40;31.13;;;18.35;;
45392;SDS011;31129;44.810;10.334;2023-03-01T05:48:07;33.30;;;19.88;;
45392;SDS011;31129;44.810;10.334;2023-03-01T05:50:35;33.08;;;18.95;;
45392;SDS011;31129;44.810;10.334;2023-03-01T05:55:28;32.83;;;18.83;;
45392;SDS011;31129;44.810;10.334;2023-03-01T05:57:54;32.85;;;18.05;;
45392;SDS011;31129;44.810;10.334;2023-03-01T06:00:22;31.35;;;19.33;;
45392;SDS011;31129;44.810;10.334;2023-03-01T06:02:48;34.67;;;18.70;;
45392;SDS011;31129;44.810;10.334;2023-03-01T06:05:13;31.40;;;18.50;;
45392;SDS011;31129;44.810;10.334;2023-03-01T06:07:39;33.03;;;20.08;;
45392;SDS011;31129;44.810;10.334;2023-03-01T06:10:05;32.83;;;19.27;;
45392;SDS011;31129;44.810;10.334;2023-03-01T06:12:32;31.67;;;18.83;;
45392;SDS011;31129;44.810;10.334;2023-03-01T06:14:59;37.38;;;19.73;;
45392;SDS011;31129;44.810;10.334;2023-03-01T06:17:26;31.55;;;19.92;;
45392;SDS011;31129;44.810;10.334;2023-03-01T06:19:55;31.60;;;19.90;;
45392;SDS011;31129;44.810;10.334;2023-03-01T06:22:20;36.92;;;19.75;;
45392;SDS011;31129;44.810;10.334;2023-03-01T06:24:46;29.00;;;18.95;;
45392;SDS011;31129;44.810;10.334;2023-03-01T06:27:11;33.88;;;20.48;;
45392;SDS011;31129;44.810;10.334;2023-03-01T06:29:36;35.13;;;19.33;;
45392;SDS011;31129;44.810;10.334;2023-03-01T06:32:02;29.48;;;17.80;;
45392;SDS011;31129;44.810;10.334;2023-03-01T06:34:28;30.50;;;18.33;;
45392;SDS011;31129;44.810;10.334;2023-03-01T06:36:54;28.48;;;18.17;;
45392;SDS011;31129;44.810;10.334;2023-03-01T06:39:19;36.55;;;19.05;;
45392;SDS011;31129;44.810;10.334;2023-03-01T06:41:45;30.13;;;19.00;;
45392;SDS011;31129;44.810;10.334;2023-03-01T06:44:10;32.42;;;18.30;;
45392;SDS011;31129;44.810;10.334;2023-03-01T06:46:35;40.25;;;19.10;;
45392;SDS011;31129;44.810;10.334;2023-03-01T06:49:01;26.55;;;17.95;;
45392;SDS011;31129;44.810;10.334;2023-03-01T06:51:29;33.80;;;19.40;;
45392;SDS011;31129;44.810;10.334;2023-03-01T06:53:55;35.20;;;18.88;;
45392;SDS011;31129;44.810;10.334;2023-03-01T06:56:20;30.75;;;19.63;;
45392;SDS011;31129;44.810;10.334;2023-03-01T06:58:46;33.47;;;19.55;;
45392;SDS011;31129;44.810;10.334;2023-03-01T07:01:11;33.72;;;18.08;;
45392;SDS011;31129;44.810;10.334;2023-03-01T07:03:39;35.00;;;20.88;;
45392;SDS011;31129;44.810;10.334;2023-03-01T07:06:05;38.58;;;18.75;;
45392;SDS011;31129;44.810;10.334;2023-03-01T07:08:30;29.80;;;18.95;;
45392;SDS011;31129;44.810;10.334;2023-03-01T07:10:56;30.95;;;19.00;;
45392;SDS011;31129;44.810;10.334;2023-03-01T07:13:22;36.60;;;18.58;;
45392;SDS011;31129;44.810;10.334;2023-03-01T07:15:48;29.15;;;17.70;;
45392;SDS011;31129;44.810;10.334;2023-03-01T07:18:13;33.33;;;18.50;;
45392;SDS011;31129;44.810;10.334;2023-03-01T07:20:38;33.40;;;17.58;;
45392;SDS011;31129;44.810;10.334;2023-03-01T07:23:05;30.25;;;18.08;;
45392;SDS011;31129;44.810;10.334;2023-03-01T07:25:31;26.23;;;14.75;;
45392;SDS011;31129;44.810;10.334;2023-03-01T07:27:57;26.58;;;16.63;;
45392;SDS011;31129;44.810;10.334;2023-03-01T07:30:23;29.70;;;18.02;;
45392;SDS011;31129;44.810;10.334;2023-03-01T07:32:53;33.05;;;17.45;;
45392;SDS011;31129;44.810;10.334;2023-03-01T07:35:20;26.83;;;16.33;;
45392;SDS011;31129;44.810;10.334;2023-03-01T07:37:49;31.27;;;17.65;;
45392;SDS011;31129;44.810;10.334;2023-03-01T07:40:15;27.77;;;15.32;;
45392;SDS011;31129;44.810;10.334;2023-03-01T07:42:40;24.38;;;14.38;;
45392;SDS011;31129;44.810;10.334;2023-03-01T07:45:06;20.85;;;13.07;;
45392;SDS011;31129;44.810;10.334;2023-03-01T07:47:31;29.33;;;13.23;;
45392;SDS011;31129;44.810;10.334;2023-03-01T07:49:57;22.20;;;14.35;;
45392;SDS011;31129;44.810;10.334;2023-03-01T07:52:22;26.38;;;13.88;;
45392;SDS011;31129;44.810;10.334;2023-03-01T07:54:48;29.00;;;16.20;;
45392;SDS011;31129;44.810;10.334;2023-03-01T07:57:13;28.17;;;16.38;;
45392;SDS011;31129;44.810;10.334;2023-03-01T07:59:39;30.65;;;17.98;;
45392;SDS011;31129;44.810;10.334;2023-03-01T08:02:05;29.63;;;16.60;;
45392;SDS011;31129;44.810;10.334;2023-03-01T08:04:31;29.98;;;17.10;;
45392;SDS011;31129;44.810;10.334;2023-03-01T08:06:58;32.15;;;17.08;;
45392;SDS011;31129;44.810;10.334;2023-03-01T08:09:23;27.70;;;16.20;;
45392;SDS011;31129;44.810;10.334;2023-03-01T08:11:49;25.45;;;16.55;;
45392;SDS011;31129;44.810;10.334;2023-03-01T08:14:14;31.48;;;16.92;;
45392;SDS011;31129;44.810;10.334;2023-03-01T08:16:40;32.47;;;16.52;;
45392;SDS011;31129;44.810;10.334;2023-03-01T08:19:06;29.40;;;15.95;;
45392;SDS011;31129;44.810;10.334;2023-03-01T08:21:32;26.23;;;16.55;;
45392;SDS011;31129;44.810;10.334;2023-03-01T08:24:00;27.92;;;15.95;;
45392;SDS011;31129;44.810;10.334;2023-03-01T08:26:29;29.80;;;15.45;;
45392;SDS011;31129;44.810;10.334;2023-03-01T08:28:55;27.88;;;16.75;;
45392;SDS011;31129;44.810;10.334;2023-03-01T08:31:22;23.40;;;14.02;;
45392;SDS011;31129;44.810;10.334;2023-03-01T08:33:50;24.55;;;15.40;;
45392;SDS011;31129;44.810;10.334;2023-03-01T08:36:20;26.75;;;16.88;;
45392;SDS011;31129;44.810;10.334;2023-03-01T08:38:47;25.13;;;15.98;;
45392;SDS011;31129;44.810;10.334;2023-03-01T08:41:13;30.40;;;15.70;;
45392;SDS011;31129;44.810;10.334;2023-03-01T08:43:39;28.10;;;15.43;;
45392;SDS011;31129;44.810;10.334;2023-03-01T08:46:04;27.92;;;15.65;;
45392;SDS011;31129;44.810;10.334;2023-03-01T08:48:30;27.05;;;16.35;;
45392;SDS011;31129;44.810;10.334;2023-03-01T08:50:55;30.45;;;16.73;;
45392;SDS011;31129;44.810;10.334;2023-03-01T08:53:21;31.65;;;14.98;;
45392;SDS011;31129;44.810;10.334;2023-03-01T08:55:46;27.70;;;15.93;;
45392;SDS011;31129;44.810;10.334;2023-03-01T08:58:11;25.38;;;14.93;;
45392;SDS011;31129;44.810;10.334;2023-03-01T09:00:37;27.95;;;15.85;;
45392;SDS011;31129;44.810;10.334;2023-03-01T09:03:03;25.92;;;16.20;;
45392;SDS011;31129;44.810;10.334;2023-03-01T09:05:32;31.55;;;17.10;;
45392;SDS011;31129;44.810;10.334;2023-03-01T09:07:59;30.90;;;17.13;;
45392;SDS011;31129;44.810;10.334;2023-03-01T09:10:24;25.48;;;15.55;;
45392;SDS011;31129;44.810;10.334;2023-03-01T09:12:50;31.27;;;16.73;;
45392;SDS011;31129;44.810;10.334;2023-03-01T09:15:16;34.05;;;17.10;;
45392;SDS011;31129;44.810;10.334;2023-03-01T09:17:41;29.00;;;15.93;;
45392;SDS011;31129;44.810;10.334;2023-03-01T09:20:07;30.88;;;16.35;;
45392;SDS011;31129;44.810;10.334;2023-03-01T09:22:33;27.05;;;15.23;;
45392;SDS011;31129;44.810;10.334;2023-03-01T09:25:00;28.08;;;16.20;;
45392;SDS011;31129;44.810;10.334;2023-03-01T09:27:25;27.60;;;14.77;;
45392;SDS011;31129;44.810;10.334;2023-03-01T09:29:51;25.75;;;16.77;;
45392;SDS011;31129;44.810;10.334;2023-03-01T09:32:16;24.88;;;14.93;;
45392;SDS011;31129;44.810;10.334;2023-03-01T09:34:41;25.60;;;14.68;;
45392;SDS011;31129;44.810;10.334;2023-03-01T09:37:42;25.17;;;15.80;;
45392;SDS011;31129;44.810;10.334;2023-03-01T09:40:13;24.95;;;14.65;;
45392;SDS011;31129;44.810;10.334;2023-03-01T09:45:22;21.35;;;13.40;;
45392;SDS011;31129;44.810;10.334;2023-03-01T09:47:51;28.25;;;15.65;;
45392;SDS011;31129;44.810;10.334;2023-03-01T09:50:20;24.13;;;14.43;;
45392;SDS011;31129;44.810;10.334;2023-03-01T09:55:28;26.63;;;14.73;;
45392;SDS011;31129;44.810;10.334;2023-03-01T09:58:25;27.52;;;14.43;;
45392;SDS011;31129;44.810;10.334;2023-03-01T10:00:56;26.47;;;14.83;;
45392;SDS011;31129;44.810;10.334;2023-03-01T10:03:28;24.63;;;13.82;;
45392;SDS011;31129;44.810;10.334;2023-03-01T10:11:20;27.40;;;14.98;;
45392;SDS011;31129;44.810;10.334;2023-03-01T10:13:50;26.90;;;14.88;;
45392;SDS011;31129;44.810;10.334;2023-03-01T10:17:01;25.88;;;13.82;;
45392;SDS011;31129;44.810;10.334;2023-03-01T10:24:47;22.13;;;12.93;;
45392;SDS011;31129;44.810;10.334;2023-03-01T10:32:23;30.52;;;14.98;;
45392;SDS011;31129;44.810;10.334;2023-03-01T10:34:49;31.27;;;15.07;;
45392;SDS011;31129;44.810;10.334;2023-03-01T10:37:17;27.88;;;14.55;;
45392;SDS011;31129;44.810;10.334;2023-03-01T10:40:05;24.35;;;11.65;;
45392;SDS011;31129;44.810;10.334;2023-03-01T10:42:36;22.13;;;12.73;;
45392;SDS011;31129;44.810;10.334;2023-03-01T10:45:14;24.48;;;12.75;;
45392;SDS011;31129;44.810;10.334;2023-03-01T10:47:47;24.45;;;12.48;;
45392;SDS011;31129;44.810;10.334;2023-03-01T10:50:29;19.80;;;12.43;;
45392;SDS011;31129;44.810;10.334;2023-03-01T10:53:01;19.52;;;11.70;;
45392;SDS011;31129;44.810;10.334;2023-03-01T10:58:06;20.85;;;11.80;;
45392;SDS011;31129;44.810;10.334;2023-03-01T11:00:52;20.92;;;12.13;;
45392;SDS011;31129;44.810;10.334;2023-03-01T11:03:32;22.30;;;11.60;;
45392;SDS011;31129;44.810;10.334;2023-03-01T11:06:18;19.38;;;11.70;;
45392;SDS011;31129;44.810;10.334;2023-03-01T11:08:47;21.20;;;12.20;;
45392;SDS011;31129;44.810;10.334;2023-03-01T11:16:57;18.77;;;12.13;;
45392;SDS011;31129;44.810;10.334;2023-03-01T11:19:24;26.20;;;13.20;;
45392;SDS011;31129;44.810;10.334;2023-03-01T11:21:55;25.63;;;12.35;;
45392;SDS011;31129;44.810;10.334;2023-03-01T11:24:27;21.67;;;12.32;;
45392;SDS011;31129;44.810;10.334;2023-03-01T11:27:33;20.83;;;12.18;;
45392;SDS011;31129;44.810;10.334;2023-03-01T11:30:03;25.20;;;13.75;;
45392;SDS011;31129;44.810;10.334;2023-03-01T11:32:33;22.65;;;13.50;;
45392;SDS011;31129;44.810;10.334;2023-03-01T11:35:15;22.63;;;12.93;;
45392;SDS011;31129;44.810;10.334;2023-03-01T11:37:49;18.48;;;12.25;;
45392;SDS011;31129;44.810;10.334;2023-03-01T11:51:41;23.50;;;12.65;;
45392;SDS011;31129;44.810;10.334;2023-03-01T11:56:57;23.60;;;13.80;;
45392;SDS011;31129;44.810;10.334;2023-03-01T12:10:30;28.42;;;16.27;;
45392;SDS011;31129;44.810;10.334;2023-03-01T12:13:10;25.90;;;16.20;;
45392;SDS011;31129;44.810;10.334;2023-03-01T12:21:48;29.38;;;17.10;;
45392;SDS011;31129;44.810;10.334;2023-03-01T12:24:48;28.05;;;16.58;;
45392;SDS011;31129;44.810;10.334;2023-03-01T12:30:29;29.95;;;17.52;;
45392;SDS011;31129;44.810;10.334;2023-03-01T12:33:26;26.73;;;15.90;;
45392;SDS011;31129;44.810;10.334;2023-03-01T12:39:02;28.25;;;17.30;;
45392;SDS011;31129;44.810;10.334;2023-03-01T12:44:46;30.45;;;17.33;;
45392;SDS011;31129;44.810;10.334;2023-03-01T12:47:18;36.88;;;18.92;;
45392;SDS011;31129;44.810;10.334;2023-03-01T12:49:54;33.90;;;18.70;;
45392;SDS011;31129;44.810;10.334;2023-03-01T12:52:40;30.33;;;17.85;;
45392;SDS011;31129;44.810;10.334;2023-03-01T12:55:29;30.75;;;16.45;;
45392;SDS011;31129;44.810;10.334;2023-03-01T13:06:02;33.72;;;17.92;;
45392;SDS011;31129;44.810;10.334;2023-03-01T13:11:27;28.55;;;17.92;;
45392;SDS011;31129;44.810;10.334;2023-03-01T13:14:00;32.25;;;18.02;;
45392;SDS011;31129;44.810;10.334;2023-03-01T13:16:50;33.43;;;19.17;;
45392;SDS011;31129;44.810;10.334;2023-03-01T13:21:51;30.92;;;18.67;;
45392;SDS011;31129;44.810;10.334;2023-03-01T13:24:35;29.10;;;17.02;;
45392;SDS011;31129;44.810;10.334;2023-03-01T13:32:27;28.48;;;17.17;;
45392;SDS011;31129;44.810;10.334;2023-03-01T13:34:55;25.42;;;16.15;;
45392;SDS011;31129;44.810;10.334;2023-03-01T13:37:44;26.83;;;15.88;;
45392;SDS011;31129;44.810;10.334;2023-03-01T13:42:50;32.47;;;17.95;;
45392;SDS011;31129;44.810;10.334;2023-03-01T13:45:18;30.13;;;18.17;;
45392;SDS011;31129;44.810;10.334;2023-03-01T13:47:47;30.85;;;18.70;;
45392;SDS011;31129;44.810;10.334;2023-03-01T13:50:22;26.13;;;15.57;;
45392;SDS011;31129;44.810;10.334;2023-03-01T13:55:38;31.45;;;18.67;;
45392;SDS011;31129;44.810;10.334;2023-03-01T13:58:15;30.98;;;17.95;;
45392;SDS011;31129;44.810;10.334;2023-03-01T14:00:47;34.35;;;19.27;;
45392;SDS011;31129;44.810;10.334;2023-03-01T14:03:19;29.05;;;18.55;;
45392;SDS011;31129;44.810;10.334;2023-03-01T14:05:58;28.38;;;17.80;;
45392;SDS011;31129;44.810;10.334;2023-03-01T14:08:27;33.92;;;18.98;;
45392;SDS011;31129;44.810;10.334;2023-03-01T14:13:35;35.25;;;20.00;;
45392;SDS011;31129;44.810;10.334;2023-03-01T14:16:10;31.25;;;19.40;;
45392;SDS011;31129;44.810;10.334;2023-03-01T14:21:24;31.95;;;18.90;;
45392;SDS011;31129;44.810;10.334;2023-03-01T14:23:51;34.58;;;19.20;;
45392;SDS011;31129;44.810;10.334;2023-03-01T14:26:21;36.17;;;19.85;;
45392;SDS011;31129;44.810;10.334;2023-03-01T14:28:47;31.02;;;18.60;;
45392;SDS011;31129;44.810;10.334;2023-03-01T14:33:55;40.97;;;19.88;;
45392;SDS011;31129;44.810;10.334;2023-03-01T14:36:26;35.70;;;19.55;;
45392;SDS011;31129;44.810;10.334;2023-03-01T14:38:52;38.17;;;20.52;;
45392;SDS011;31129;44.810;10.334;2023-03-01T14:41:23;31.73;;;19.33;;
45392;SDS011;31129;44.810;10.334;2023-03-01T14:43:54;33.88;;;20.00;;
45392;SDS011;31129;44.810;10.334;2023-03-01T14:46:26;31.73;;;19.20;;
45392;SDS011;31129;44.810;10.334;2023-03-01T14:48:57;32.85;;;18.52;;
45392;SDS011;31129;44.810;10.334;2023-03-01T14:51:28;33.47;;;19.25;;
45392;SDS011;31129;44.810;10.334;2023-03-01T14:53:54;28.92;;;19.10;;
45392;SDS011;31129;44.810;10.334;2023-03-01T14:56:20;32.03;;;19.13;;
45392;SDS011;31129;44.810;10.334;2023-03-01T14:58:46;28.17;;;17.88;;
45392;SDS011;31129;44.810;10.334;2023-03-01T15:01:17;30.10;;;18.52;;
45392;SDS011;31129;44.810;10.334;2023-03-01T15:03:47;32.75;;;19.23;;
45392;SDS011;31129;44.810;10.334;2023-03-01T15:06:20;30.77;;;19.02;;
45392;SDS011;31129;44.810;10.334;2023-03-01T15:08:48;34.70;;;19.33;;
45392;SDS011;31129;44.810;10.334;2023-03-01T15:11:23;31.88;;;19.98;;
45392;SDS011;31129;44.810;10.334;2023-03-01T15:13:52;31.02;;;19.20;;
45392;SDS011;31129;44.810;10.334;2023-03-01T15:16:24;36.08;;;19.85;;
45392;SDS011;31129;44.810;10.334;2023-03-01T15:19:01;29.77;;;19.08;;
45392;SDS011;31129;44.810;10.334;2023-03-01T15:21:35;32.75;;;18.50;;
45392;SDS011;31129;44.810;10.334;2023-03-01T15:24:06;33.70;;;19.65;;
45392;SDS011;31129;44.810;10.334;2023-03-01T15:29:26;30.90;;;19.17;;
45392;SDS011;31129;44.810;10.334;2023-03-01T15:31:58;33.17;;;19.48;;
45392;SDS011;31129;44.810;10.334;2023-03-01T15:36:58;36.83;;;21.55;;
45392;SDS011;31129;44.810;10.334;2023-03-01T15:39:33;31.25;;;19.65;;
45392;SDS011;31129;44.810;10.334;2023-03-01T15:44:42;32.88;;;19.40;;
45392;SDS011;31129;44.810;10.334;2023-03-01T15:47:25;33.55;;;20.20;;
45392;SDS011;31129;44.810;10.334;2023-03-01T15:49:59;29.00;;;19.15;;
45392;SDS011;31129;44.810;10.334;2023-03-01T15:52:29;32.47;;;19.60;;
45392;SDS011;31129;44.810;10.334;2023-03-01T15:55:03;31.38;;;19.40;;
45392;SDS011;31129;44.810;10.334;2023-03-01T15:58:04;37.90;;;20.77;;
45392;SDS011;31129;44.810;10.334;2023-03-01T16:00:41;36.13;;;20.23;;
45392;SDS011;31129;44.810;10.334;2023-03-01T16:03:08;35.42;;;21.88;;
45392;SDS011;31129;44.810;10.334;2023-03-01T16:05:37;33.65;;;20.85;;
45392;SDS011;31129;44.810;10.334;2023-03-01T16:08:03;35.22;;;20.25;;
45392;SDS011;31129;44.810;10.334;2023-03-01T16:10:31;30.23;;;19.17;;
45392;SDS011;31129;44.810;10.334;2023-03-01T16:12:57;25.65;;;17.92;;
45392;SDS011;31129;44.810;10.334;2023-03-01T16:15:25;33.05;;;18.13;;
45392;SDS011;31129;44.810;10.334;2023-03-01T16:17:53;30.95;;;19.65;;
45392;SDS011;31129;44.810;10.334;2023-03-01T16:20:20;30.33;;;18.50;;
45392;SDS011;31129;44.810;10.334;2023-03-01T16:22:47;27.75;;;18.45;;
45392;SDS011;31129;44.810;10.334;2023-03-01T16:25:16;33.72;;;20.00;;
45392;SDS011;31129;44.810;10.334;2023-03-01T16:27:46;27.83;;;18.92;;
45392;SDS011;31129;44.810;10.334;2023-03-01T16:30:14;28.33;;;19.20;;
45392;SDS011;31129;44.810;10.334;2023-03-01T16:32:42;33.50;;;21.57;;
45392;SDS011;31129;44.810;10.334;2023-03-01T16:35:10;34.65;;;21.05;;